sensor_id;sensor_type;location;lat;lon;timestamp;P1;durP1;ratioP1;P2;durP2;ratioP2
17201;SDS011;8717;53.588;10.176;2022-09-09T00:02:08;95.43;;;25.07;;
17201;SDS011;8717;53.588;10.176;2022-09-09T00:04:43;108.30;;;26.47;;
17201;SDS011;8717;53.588;10.176;2022-09-09T00:07:18;95.97;;;25.43;;
17201;SDS011;8717;53.588;10.176;2022-09-09T00:09:54;127.97;;;25.30;;
17201;SDS011;8717;53.588;10.176;2022-09-09T00:12:34;96.10;;;24.97;;
17201;SDS011;8717;53.588;10.176;2022-09-09T00:15:05;123.20;;;26.13;;
17201;SDS011;8717;53.588;10.176;2022-09-09T00:17:39;95.43;;;24.30;;
17201;SDS011;8717;53.588;10.176;2022-09-09T00:20:12;98.77;;;24.60;;
17201;SDS011;8717;53.588;10.176;2022-09-09T00:22:45;127.33;;;25.97;;
17201;SDS011;8717;53.588;10.176;2022-09-09T00:25:19;113.70;;;25.77;;
17201;SDS011;8717;53.588;10.176;2022-09-09T00:27:52;76.60;;;24.00;;
17201;SDS011;8717;53.588;10.176;2022-09-09T00:30:21;128.33;;;25.33;;
17201;SDS011;8717;53.588;10.176;2022-09-09T00:32:50;121.33;;;23.23;;
17201;SDS011;8717;53.588;10.176;2022-09-09T00:35:24;50.43;;;21.00;;
17201;SDS011;8717;53.588;10.176;2022-09-09T00:37:55;100.80;;;22.90;;
17201;SDS011;8717;53.588;10.176;2022-09-09T00:40:28;67.70;;;22.50;;
17201;SDS011;8717;53.588;10.176;2022-09-09T00:43:02;71.10;;;22.73;;
17201;SDS011;8717;53.588;10.176;2022-09-09T00:45:48;76.73;;;23.00;;
17201;SDS011;8717;53.588;10.176;2022-09-09T00:48:26;56.50;;;21.10;;
17201;SDS011;8717;53.588;10.176;2022-09-09T00:51:02;63.20;;;21.37;;
17201;SDS011;8717;53.588;10.176;2022-09-09T00:53:38;92.60;;;23.37;;
17201;SDS011;8717;53.588;10.176;2022-09-09T00:56:22;77.53;;;22.47;;
17201;SDS011;8717;53.588;10.176;2022-09-09T00:58:59;42.40;;;20.10;;
17201;SDS011;8717;53.588;10.176;2022-09-09T01:01:32;44.40;;;20.30;;
17201;SDS011;8717;53.588;10.176;2022-09-09T01:04:00;78.27;;;22.20;;
17201;SDS011;8717;53.588;10.176;2022-09-09T01:06:36;65.00;;;20.97;;
17201;SDS011;8717;53.588;10.176;2022-09-09T01:09:08;67.87;;;21.47;;
17201;SDS011;8717;53.588;10.176;2022-09-09T01:11:45;56.67;;;20.93;;
17201;SDS011;8717;53.588;10.176;2022-09-09T01:14:22;59.90;;;21.43;;
17201;SDS011;8717;53.588;10.176;2022-09-09T01:16:59;51.17;;;21.57;;
17201;SDS011;8717;53.588;10.176;2022-09-09T01:19:33;51.20;;;21.03;;
17201;SDS011;8717;53.588;10.176;2022-09-09T01:22:14;63.03;;;22.20;;
17201;SDS011;8717;53.588;10.176;2022-09-09T01:25:01;71.37;;;22.50;;
17201;SDS011;8717;53.588;10.176;2022-09-09T01:27:53;49.57;;;21.53;;
17201;SDS011;8717;53.588;10.176;2022-09-09T01:30:23;70.67;;;22.70;;
17201;SDS011;8717;53.588;10.176;2022-09-09T01:32:54;68.03;;;20.33;;
17201;SDS011;8717;53.588;10.176;2022-09-09T01:35:28;64.67;;;22.70;;
17201;SDS011;8717;53.588;10.176;2022-09-09T01:38:02;98.93;;;24.60;;
17201;SDS011;8717;53.588;10.176;2022-09-09T01:40:29;77.43;;;23.37;;
17201;SDS011;8717;53.588;10.176;2022-09-09T01:42:58;54.70;;;22.70;;
17201;SDS011;8717;53.588;10.176;2022-09-09T01:45:25;84.23;;;24.07;;
17201;SDS011;8717;53.588;10.176;2022-09-09T01:47:52;52.37;;;21.83;;
17201;SDS011;8717;53.588;10.176;2022-09-09T01:50:28;76.20;;;22.63;;
17201;SDS011;8717;53.588;10.176;2022-09-09T01:52:56;132.33;;;25.60;;
17201;SDS011;8717;53.588;10.176;2022-09-09T01:55:30;72.70;;;22.40;;
17201;SDS011;8717;53.588;10.176;2022-09-09T01:58:08;113.20;;;23.97;;
17201;SDS011;8717;53.588;10.176;2022-09-09T02:00:51;145.93;;;26.23;;
17201;SDS011;8717;53.588;10.176;2022-09-09T02:03:23;112.17;;;25.27;;
17201;SDS011;8717;53.588;10.176;2022-09-09T02:06:00;61.30;;;22.30;;
17201;SDS011;8717;53.588;10.176;2022-09-09T02:08:42;45.77;;;20.93;;
17201;SDS011;8717;53.588;10.176;2022-09-09T02:11:13;34.37;;;21.27;;
17201;SDS011;8717;53.588;10.176;2022-09-09T02:14:03;114.60;;;25.00;;
17201;SDS011;8717;53.588;10.176;2022-09-09T02:16:39;123.07;;;24.93;;
17201;SDS011;8717;53.588;10.176;2022-09-09T02:19:09;95.63;;;24.03;;
17201;SDS011;8717;53.588;10.176;2022-09-09T02:21:55;88.73;;;22.70;;
17201;SDS011;8717;53.588;10.176;2022-09-09T02:24:23;124.53;;;24.47;;
17201;SDS011;8717;53.588;10.176;2022-09-09T02:27:03;169.57;;;27.70;;
17201;SDS011;8717;53.588;10.176;2022-09-09T02:29:34;192.53;;;27.63;;
17201;SDS011;8717;53.588;10.176;2022-09-09T02:32:05;173.53;;;26.40;;
17201;SDS011;8717;53.588;10.176;2022-09-09T02:34:38;99.57;;;23.00;;
17201;SDS011;8717;53.588;10.176;2022-09-09T02:37:09;117.17;;;24.10;;
17201;SDS011;8717;53.588;10.176;2022-09-09T02:39:42;124.37;;;23.83;;
17201;SDS011;8717;53.588;10.176;2022-09-09T02:42:13;124.33;;;24.43;;
17201;SDS011;8717;53.588;10.176;2022-09-09T02:44:43;108.50;;;23.70;;
17201;SDS011;8717;53.588;10.176;2022-09-09T02:47:16;105.60;;;22.40;;
17201;SDS011;8717;53.588;10.176;2022-09-09T02:49:57;105.10;;;23.13;;
17201;SDS011;8717;53.588;10.176;2022-09-09T02:52:32;105.10;;;22.83;;
17201;SDS011;8717;53.588;10.176;2022-09-09T02:55:08;46.40;;;21.93;;
17201;SDS011;8717;53.588;10.176;2022-09-09T02:57:47;63.90;;;20.50;;
17201;SDS011;8717;53.588;10.176;2022-09-09T03:00:17;94.33;;;22.13;;
17201;SDS011;8717;53.588;10.176;2022-09-09T03:02:50;53.00;;;21.50;;
17201;SDS011;8717;53.588;10.176;2022-09-09T03:05:17;40.90;;;20.50;;
17201;SDS011;8717;53.588;10.176;2022-09-09T03:07:44;38.33;;;20.13;;
17201;SDS011;8717;53.588;10.176;2022-09-09T03:10:11;48.03;;;20.63;;
17201;SDS011;8717;53.588;10.176;2022-09-09T03:12:38;85.80;;;21.47;;
17201;SDS011;8717;53.588;10.176;2022-09-09T03:15:06;70.80;;;22.03;;
17201;SDS011;8717;53.588;10.176;2022-09-09T03:17:36;44.60;;;19.47;;
17201;SDS011;8717;53.588;10.176;2022-09-09T03:20:03;42.90;;;21.03;;
17201;SDS011;8717;53.588;10.176;2022-09-09T03:22:31;53.27;;;21.77;;
17201;SDS011;8717;53.588;10.176;2022-09-09T03:24:59;68.47;;;22.50;;
17201;SDS011;8717;53.588;10.176;2022-09-09T03:27:27;81.83;;;21.67;;
17201;SDS011;8717;53.588;10.176;2022-09-09T03:29:54;34.73;;;18.93;;
17201;SDS011;8717;53.588;10.176;2022-09-09T03:32:23;44.70;;;20.60;;
17201;SDS011;8717;53.588;10.176;2022-09-09T03:34:53;36.03;;;21.00;;
17201;SDS011;8717;53.588;10.176;2022-09-09T03:37:20;34.13;;;19.97;;
17201;SDS011;8717;53.588;10.176;2022-09-09T03:39:49;71.13;;;21.53;;
17201;SDS011;8717;53.588;10.176;2022-09-09T03:42:16;58.13;;;22.20;;
17201;SDS011;8717;53.588;10.176;2022-09-09T03:44:45;35.07;;;20.60;;
17201;SDS011;8717;53.588;10.176;2022-09-09T03:47:16;46.40;;;21.27;;
17201;SDS011;8717;53.588;10.176;2022-09-09T03:49:44;38.97;;;20.37;;
17201;SDS011;8717;53.588;10.176;2022-09-09T03:52:13;30.73;;;20.17;;
17201;SDS011;8717;53.588;10.176;2022-09-09T03:54:40;39.27;;;20.97;;
17201;SDS011;8717;53.588;10.176;2022-09-09T03:57:08;29.60;;;19.67;;
17201;SDS011;8717;53.588;10.176;2022-09-09T03:59:35;28.53;;;19.47;;
17201;SDS011;8717;53.588;10.176;2022-09-09T04:02:02;47.57;;;20.43;;
17201;SDS011;8717;53.588;10.176;2022-09-09T04:04:29;30.13;;;19.70;;
17201;SDS011;8717;53.588;10.176;2022-09-09T04:06:56;45.40;;;20.23;;
17201;SDS011;8717;53.588;10.176;2022-09-09T04:09:24;41.43;;;20.63;;
17201;SDS011;8717;53.588;10.176;2022-09-09T04:11:51;30.20;;;19.27;;
17201;SDS011;8717;53.588;10.176;2022-09-09T04:14:18;49.97;;;20.13;;
17201;SDS011;8717;53.588;10.176;2022-09-09T04:16:47;34.97;;;19.23;;
17201;SDS011;8717;53.588;10.176;2022-09-09T04:19:16;30.20;;;19.73;;
17201;SDS011;8717;53.588;10.176;2022-09-09T04:21:43;39.43;;;19.47;;
17201;SDS011;8717;53.588;10.176;2022-09-09T04:24:10;23.67;;;18.00;;
17201;SDS011;8717;53.588;10.176;2022-09-09T04:26:38;38.70;;;20.57;;
17201;SDS011;8717;53.588;10.176;2022-09-09T04:29:06;39.27;;;20.10;;
17201;SDS011;8717;53.588;10.176;2022-09-09T04:31:33;43.50;;;20.60;;
17201;SDS011;8717;53.588;10.176;2022-09-09T04:34:00;37.87;;;19.93;;
17201;SDS011;8717;53.588;10.176;2022-09-09T04:36:30;39.93;;;20.20;;
17201;SDS011;8717;53.588;10.176;2022-09-09T04:39:00;34.77;;;19.57;;
17201;SDS011;8717;53.588;10.176;2022-09-09T04:41:27;28.93;;;20.43;;
17201;SDS011;8717;53.588;10.176;2022-09-09T04:43:58;26.13;;;19.10;;
17201;SDS011;8717;53.588;10.176;2022-09-09T04:46:25;26.87;;;21.27;;
17201;SDS011;8717;53.588;10.176;2022-09-09T04:48:52;28.13;;;19.83;;
17201;SDS011;8717;53.588;10.176;2022-09-09T04:51:21;25.20;;;19.50;;
17201;SDS011;8717;53.588;10.176;2022-09-09T04:53:48;25.70;;;19.13;;
17201;SDS011;8717;53.588;10.176;2022-09-09T04:56:22;23.13;;;19.13;;
17201;SDS011;8717;53.588;10.176;2022-09-09T04:58:54;24.07;;;18.43;;
17201;SDS011;8717;53.588;10.176;2022-09-09T05:01:26;21.83;;;17.43;;
17201;SDS011;8717;53.588;10.176;2022-09-09T05:03:59;22.17;;;17.10;;
17201;SDS011;8717;53.588;10.176;2022-09-09T05:06:26;22.63;;;17.27;;
17201;SDS011;8717;53.588;10.176;2022-09-09T05:08:56;23.17;;;16.93;;
17201;SDS011;8717;53.588;10.176;2022-09-09T05:11:27;21.40;;;16.70;;
17201;SDS011;8717;53.588;10.176;2022-09-09T05:13:59;22.07;;;16.47;;
17201;SDS011;8717;53.588;10.176;2022-09-09T05:16:29;20.60;;;15.67;;
17201;SDS011;8717;53.588;10.176;2022-09-09T05:18:57;21.00;;;15.50;;
17201;SDS011;8717;53.588;10.176;2022-09-09T05:21:26;21.53;;;16.17;;
17201;SDS011;8717;53.588;10.176;2022-09-09T05:23:53;15.70;;;13.87;;
17201;SDS011;8717;53.588;10.176;2022-09-09T05:26:21;18.17;;;14.33;;
17201;SDS011;8717;53.588;10.176;2022-09-09T05:28:51;17.23;;;14.40;;
17201;SDS011;8717;53.588;10.176;2022-09-09T05:31:20;17.83;;;13.80;;
17201;SDS011;8717;53.588;10.176;2022-09-09T05:33:51;19.90;;;14.10;;
17201;SDS011;8717;53.588;10.176;2022-09-09T05:36:19;18.67;;;14.53;;
17201;SDS011;8717;53.588;10.176;2022-09-09T05:38:50;18.27;;;14.23;;
17201;SDS011;8717;53.588;10.176;2022-09-09T05:41:19;16.03;;;13.60;;
17201;SDS011;8717;53.588;10.176;2022-09-09T05:43:46;17.07;;;12.67;;
17201;SDS011;8717;53.588;10.176;2022-09-09T05:46:14;17.03;;;12.83;;
17201;SDS011;8717;53.588;10.176;2022-09-09T05:48:43;18.43;;;12.73;;
17201;SDS011;8717;53.588;10.176;2022-09-09T05:51:14;14.90;;;12.57;;
17201;SDS011;8717;53.588;10.176;2022-09-09T05:53:43;14.67;;;12.13;;
17201;SDS011;8717;53.588;10.176;2022-09-09T05:56:13;15.03;;;12.20;;
17201;SDS011;8717;53.588;10.176;2022-09-09T05:58:41;14.73;;;12.40;;
17201;SDS011;8717;53.588;10.176;2022-09-09T06:01:13;14.73;;;11.97;;
17201;SDS011;8717;53.588;10.176;2022-09-09T06:03:42;18.77;;;11.77;;
17201;SDS011;8717;53.588;10.176;2022-09-09T06:06:10;13.93;;;11.83;;
17201;SDS011;8717;53.588;10.176;2022-09-09T06:08:40;13.27;;;11.23;;
17201;SDS011;8717;53.588;10.176;2022-09-09T06:11:10;13.90;;;10.67;;
17201;SDS011;8717;53.588;10.176;2022-09-09T06:13:38;13.13;;;10.80;;
17201;SDS011;8717;53.588;10.176;2022-09-09T06:16:06;13.77;;;10.40;;
17201;SDS011;8717;53.588;10.176;2022-09-09T06:18:38;12.70;;;10.07;;
17201;SDS011;8717;53.588;10.176;2022-09-09T06:21:06;12.03;;;10.20;;
17201;SDS011;8717;53.588;10.176;2022-09-09T06:23:35;11.47;;;9.03;;
17201;SDS011;8717;53.588;10.176;2022-09-09T06:26:05;11.57;;;8.83;;
17201;SDS011;8717;53.588;10.176;2022-09-09T06:28:34;11.60;;;9.13;;
17201;SDS011;8717;53.588;10.176;2022-09-09T06:31:02;10.90;;;9.30;;
17201;SDS011;8717;53.588;10.176;2022-09-09T06:33:31;14.13;;;9.13;;
17201;SDS011;8717;53.588;10.176;2022-09-09T06:36:00;9.73;;;8.40;;
17201;SDS011;8717;53.588;10.176;2022-09-09T06:38:28;10.97;;;7.90;;
17201;SDS011;8717;53.588;10.176;2022-09-09T06:40:56;9.20;;;8.03;;
17201;SDS011;8717;53.588;10.176;2022-09-09T06:43:25;9.03;;;7.03;;
17201;SDS011;8717;53.588;10.176;2022-09-09T06:45:54;9.33;;;7.50;;
17201;SDS011;8717;53.588;10.176;2022-09-09T06:48:22;9.93;;;6.63;;
17201;SDS011;8717;53.588;10.176;2022-09-09T06:50:52;8.90;;;7.10;;
17201;SDS011;8717;53.588;10.176;2022-09-09T06:53:27;8.37;;;6.47;;
17201;SDS011;8717;53.588;10.176;2022-09-09T06:55:54;7.07;;;6.33;;
17201;SDS011;8717;53.588;10.176;2022-09-09T06:58:21;16.87;;;7.40;;
17201;SDS011;8717;53.588;10.176;2022-09-09T07:00:50;7.77;;;6.37;;
17201;SDS011;8717;53.588;10.176;2022-09-09T07:03:18;7.70;;;6.47;;
17201;SDS011;8717;53.588;10.176;2022-09-09T07:05:53;8.00;;;6.33;;
17201;SDS011;8717;53.588;10.176;2022-09-09T07:08:21;8.70;;;6.10;;
17201;SDS011;8717;53.588;10.176;2022-09-09T07:10:49;8.33;;;5.77;;
17201;SDS011;8717;53.588;10.176;2022-09-09T07:13:19;9.13;;;5.23;;
17201;SDS011;8717;53.588;10.176;2022-09-09T07:15:52;5.90;;;4.80;;
17201;SDS011;8717;53.588;10.176;2022-09-09T07:18:19;9.40;;;5.03;;
17201;SDS011;8717;53.588;10.176;2022-09-09T07:20:52;6.47;;;4.90;;
17201;SDS011;8717;53.588;10.176;2022-09-09T07:23:19;5.80;;;5.20;;
17201;SDS011;8717;53.588;10.176;2022-09-09T07:25:46;5.87;;;5.20;;
17201;SDS011;8717;53.588;10.176;2022-09-09T07:28:15;6.80;;;5.13;;
17201;SDS011;8717;53.588;10.176;2022-09-09T07:30:41;6.80;;;5.07;;
17201;SDS011;8717;53.588;10.176;2022-09-09T07:33:10;5.73;;;4.30;;
17201;SDS011;8717;53.588;10.176;2022-09-09T07:35:37;6.63;;;4.57;;
17201;SDS011;8717;53.588;10.176;2022-09-09T07:38:04;6.53;;;4.77;;
17201;SDS011;8717;53.588;10.176;2022-09-09T07:40:34;6.10;;;4.70;;
17201;SDS011;8717;53.588;10.176;2022-09-09T07:43:02;5.30;;;4.80;;
17201;SDS011;8717;53.588;10.176;2022-09-09T07:45:32;9.23;;;4.77;;
17201;SDS011;8717;53.588;10.176;2022-09-09T07:48:01;8.33;;;5.27;;
17201;SDS011;8717;53.588;10.176;2022-09-09T07:50:30;5.83;;;4.27;;
17201;SDS011;8717;53.588;10.176;2022-09-09T07:52:57;5.23;;;4.47;;
17201;SDS011;8717;53.588;10.176;2022-09-09T07:55:24;6.33;;;3.87;;
17201;SDS011;8717;53.588;10.176;2022-09-09T07:57:55;5.30;;;4.63;;
17201;SDS011;8717;53.588;10.176;2022-09-09T08:00:22;5.27;;;3.97;;
17201;SDS011;8717;53.588;10.176;2022-09-09T08:02:53;6.13;;;4.43;;
17201;SDS011;8717;53.588;10.176;2022-09-09T08:05:20;6.60;;;3.57;;
17201;SDS011;8717;53.588;10.176;2022-09-09T08:07:49;5.27;;;3.27;;
17201;SDS011;8717;53.588;10.176;2022-09-09T08:10:16;5.03;;;3.40;;
17201;SDS011;8717;53.588;10.176;2022-09-09T08:12:45;6.00;;;3.13;;
17201;SDS011;8717;53.588;10.176;2022-09-09T08:15:12;5.13;;;3.20;;
17201;SDS011;8717;53.588;10.176;2022-09-09T08:17:39;3.30;;;2.73;;
17201;SDS011;8717;53.588;10.176;2022-09-09T08:20:07;3.53;;;2.77;;
17201;SDS011;8717;53.588;10.176;2022-09-09T08:22:34;3.57;;;2.63;;
17201;SDS011;8717;53.588;10.176;2022-09-09T08:25:04;4.80;;;3.13;;
17201;SDS011;8717;53.588;10.176;2022-09-09T08:27:35;2.73;;;2.27;;
17201;SDS011;8717;53.588;10.176;2022-09-09T08:30:02;4.40;;;2.40;;
17201;SDS011;8717;53.588;10.176;2022-09-09T08:32:30;5.23;;;2.73;;
17201;SDS011;8717;53.588;10.176;2022-09-09T08:34:57;6.13;;;2.90;;
17201;SDS011;8717;53.588;10.176;2022-09-09T08:37:24;4.30;;;2.73;;
17201;SDS011;8717;53.588;10.176;2022-09-09T08:39:51;3.30;;;2.50;;
17201;SDS011;8717;53.588;10.176;2022-09-09T08:42:29;6.57;;;3.53;;
17201;SDS011;8717;53.588;10.176;2022-09-09T08:45:24;5.13;;;2.80;;
17201;SDS011;8717;53.588;10.176;2022-09-09T08:48:08;4.60;;;2.40;;
17201;SDS011;8717;53.588;10.176;2022-09-09T08:50:45;5.17;;;2.53;;
17201;SDS011;8717;53.588;10.176;2022-09-09T08:53:21;8.10;;;1.77;;
17201;SDS011;8717;53.588;10.176;2022-09-09T08:55:52;3.13;;;2.30;;
17201;SDS011;8717;53.588;10.176;2022-09-09T08:58:31;2.60;;;2.37;;
17201;SDS011;8717;53.588;10.176;2022-09-09T09:01:09;2.40;;;2.10;;
17201;SDS011;8717;53.588;10.176;2022-09-09T09:04:00;5.60;;;1.97;;
17201;SDS011;8717;53.588;10.176;2022-09-09T09:06:38;4.13;;;2.17;;
17201;SDS011;8717;53.588;10.176;2022-09-09T09:09:15;3.40;;;2.03;;
17201;SDS011;8717;53.588;10.176;2022-09-09T09:11:49;3.57;;;1.90;;
17201;SDS011;8717;53.588;10.176;2022-09-09T09:14:20;3.17;;;2.00;;
17201;SDS011;8717;53.588;10.176;2022-09-09T09:16:51;3.47;;;1.73;;
17201;SDS011;8717;53.588;10.176;2022-09-09T09:19:20;3.90;;;1.73;;
17201;SDS011;8717;53.588;10.176;2022-09-09T09:21:54;2.67;;;1.90;;
17201;SDS011;8717;53.588;10.176;2022-09-09T09:24:26;4.27;;;1.80;;
17201;SDS011;8717;53.588;10.176;2022-09-09T09:26:58;2.73;;;1.53;;
17201;SDS011;8717;53.588;10.176;2022-09-09T09:29:37;3.77;;;2.00;;
17201;SDS011;8717;53.588;10.176;2022-09-09T09:32:05;2.93;;;1.77;;
17201;SDS011;8717;53.588;10.176;2022-09-09T09:34:37;4.20;;;2.07;;
17201;SDS011;8717;53.588;10.176;2022-09-09T09:37:07;4.83;;;1.90;;
17201;SDS011;8717;53.588;10.176;2022-09-09T09:39:44;3.80;;;1.53;;
17201;SDS011;8717;53.588;10.176;2022-09-09T09:42:18;3.77;;;1.77;;
17201;SDS011;8717;53.588;10.176;2022-09-09T09:44:48;3.83;;;1.95;;
17201;SDS011;8717;53.588;10.176;2022-09-09T09:47:18;2.30;;;1.60;;
17201;SDS011;8717;53.588;10.176;2022-09-09T09:49:57;3.67;;;1.70;;
17201;SDS011;8717;53.588;10.176;2022-09-09T09:52:30;2.13;;;1.38;;
17201;SDS011;8717;53.588;10.176;2022-09-09T09:55:02;5.75;;;1.90;;
17201;SDS011;8717;53.588;10.176;2022-09-09T09:57:32;5.03;;;1.80;;
17201;SDS011;8717;53.588;10.176;2022-09-09T10:00:12;2.20;;;1.20;;
17201;SDS011;8717;53.588;10.176;2022-09-09T10:02:44;3.58;;;1.42;;
17201;SDS011;8717;53.588;10.176;2022-09-09T10:05:18;3.53;;;1.23;;
17201;SDS011;8717;53.588;10.176;2022-09-09T10:07:59;2.60;;;1.13;;
17201;SDS011;8717;53.588;10.176;2022-09-09T10:10:30;3.78;;;1.48;;
17201;SDS011;8717;53.588;10.176;2022-09-09T10:13:05;2.67;;;1.27;;
17201;SDS011;8717;53.588;10.176;2022-09-09T10:15:42;2.30;;;1.10;;
17201;SDS011;8717;53.588;10.176;2022-09-09T10:21:27;3.38;;;1.40;;
17201;SDS011;8717;53.588;10.176;2022-09-09T10:26:58;1.75;;;1.40;;
17201;SDS011;8717;53.588;10.176;2022-09-09T10:29:33;3.33;;;1.27;;
17201;SDS011;8717;53.588;10.176;2022-09-09T10:32:16;1.55;;;1.00;;
17201;SDS011;8717;53.588;10.176;2022-09-09T10:35:01;2.92;;;1.20;;
17201;SDS011;8717;53.588;10.176;2022-09-09T10:37:38;2.63;;;0.90;;
17201;SDS011;8717;53.588;10.176;2022-09-09T10:40:21;1.83;;;0.70;;
17201;SDS011;8717;53.588;10.176;2022-09-09T10:42:58;1.75;;;0.90;;
17201;SDS011;8717;53.588;10.176;2022-09-09T10:45:41;2.03;;;0.85;;
17201;SDS011;8717;53.588;10.176;2022-09-09T10:48:20;2.45;;;1.00;;
17201;SDS011;8717;53.588;10.176;2022-09-09T10:50:58;2.10;;;1.10;;
17201;SDS011;8717;53.588;10.176;2022-09-09T10:53:36;2.60;;;1.10;;
17201;SDS011;8717;53.588;10.176;2022-09-09T10:56:09;3.03;;;1.10;;
17201;SDS011;8717;53.588;10.176;2022-09-09T10:58:40;4.97;;;1.20;;
17201;SDS011;8717;53.588;10.176;2022-09-09T11:01:15;2.42;;;1.08;;
17201;SDS011;8717;53.588;10.176;2022-09-09T11:03:46;3.28;;;1.17;;
17201;SDS011;8717;53.588;10.176;2022-09-09T11:06:19;2.88;;;1.02;;
17201;SDS011;8717;53.588;10.176;2022-09-09T11:08:50;2.47;;;0.90;;
17201;SDS011;8717;53.588;10.176;2022-09-09T11:11:20;5.70;;;1.25;;
17201;SDS011;8717;53.588;10.176;2022-09-09T11:13:57;1.30;;;0.90;;
17201;SDS011;8717;53.588;10.176;2022-09-09T11:16:30;3.10;;;1.15;;
17201;SDS011;8717;53.588;10.176;2022-09-09T11:19:09;2.70;;;1.05;;
17201;SDS011;8717;53.588;10.176;2022-09-09T11:21:42;3.35;;;1.13;;
17201;SDS011;8717;53.588;10.176;2022-09-09T11:24:16;2.63;;;0.98;;
17201;SDS011;8717;53.588;10.176;2022-09-09T11:26:49;3.70;;;0.93;;
17201;SDS011;8717;53.588;10.176;2022-09-09T11:32:29;2.55;;;1.00;;
17201;SDS011;8717;53.588;10.176;2022-09-09T11:35:11;2.95;;;0.90;;
17201;SDS011;8717;53.588;10.176;2022-09-09T11:38:09;2.05;;;0.98;;
17201;SDS011;8717;53.588;10.176;2022-09-09T11:40:43;1.98;;;1.10;;
17201;SDS011;8717;53.588;10.176;2022-09-09T11:43:13;1.98;;;0.90;;
17201;SDS011;8717;53.588;10.176;2022-09-09T11:45:49;1.75;;;1.10;;
17201;SDS011;8717;53.588;10.176;2022-09-09T11:48:26;1.83;;;1.10;;
17201;SDS011;8717;53.588;10.176;2022-09-09T11:51:01;2.42;;;0.98;;
17201;SDS011;8717;53.588;10.176;2022-09-09T11:53:32;1.63;;;1.00;;
17201;SDS011;8717;53.588;10.176;2022-09-09T11:56:01;1.88;;;0.80;;
17201;SDS011;8717;53.588;10.176;2022-09-09T11:58:32;3.90;;;0.90;;
17201;SDS011;8717;53.588;10.176;2022-09-09T12:01:26;2.22;;;0.80;;
17201;SDS011;8717;53.588;10.176;2022-09-09T12:04:10;4.00;;;1.20;;
17201;SDS011;8717;53.588;10.176;2022-09-09T12:06:56;1.85;;;0.93;;
17201;SDS011;8717;53.588;10.176;2022-09-09T12:09:27;2.42;;;0.73;;
17201;SDS011;8717;53.588;10.176;2022-09-09T12:12:16;3.25;;;1.10;;
17201;SDS011;8717;53.588;10.176;2022-09-09T12:14:56;1.85;;;0.85;;
17201;SDS011;8717;53.588;10.176;2022-09-09T12:17:26;1.95;;;1.00;;
17201;SDS011;8717;53.588;10.176;2022-09-09T12:20:00;2.03;;;1.00;;
17201;SDS011;8717;53.588;10.176;2022-09-09T12:22:34;3.05;;;1.25;;
17201;SDS011;8717;53.588;10.176;2022-09-09T12:25:08;1.95;;;1.10;;
17201;SDS011;8717;53.588;10.176;2022-09-09T12:27:46;3.78;;;1.27;;
17201;SDS011;8717;53.588;10.176;2022-09-09T12:30:22;1.90;;;1.05;;
17201;SDS011;8717;53.588;10.176;2022-09-09T12:32:59;2.22;;;1.00;;
17201;SDS011;8717;53.588;10.176;2022-09-09T12:35:27;2.38;;;1.50;;
17201;SDS011;8717;53.588;10.176;2022-09-09T12:37:57;1.77;;;1.17;;
17201;SDS011;8717;53.588;10.176;2022-09-09T12:40:28;2.67;;;1.35;;
17201;SDS011;8717;53.588;10.176;2022-09-09T12:42:57;2.72;;;1.40;;
17201;SDS011;8717;53.588;10.176;2022-09-09T12:45:26;6.00;;;1.75;;
17201;SDS011;8717;53.588;10.176;2022-09-09T12:47:56;1.95;;;1.17;;
17201;SDS011;8717;53.588;10.176;2022-09-09T12:50:31;2.10;;;1.20;;
17201;SDS011;8717;53.588;10.176;2022-09-09T12:53:03;3.15;;;1.58;;
17201;SDS011;8717;53.588;10.176;2022-09-09T12:55:35;2.90;;;1.48;;
17201;SDS011;8717;53.588;10.176;2022-09-09T12:58:06;2.83;;;1.40;;
17201;SDS011;8717;53.588;10.176;2022-09-09T13:00:33;2.78;;;1.45;;
17201;SDS011;8717;53.588;10.176;2022-09-09T13:03:01;3.08;;;1.48;;
17201;SDS011;8717;53.588;10.176;2022-09-09T13:05:34;5.05;;;1.95;;
17201;SDS011;8717;53.588;10.176;2022-09-09T13:08:03;2.70;;;1.40;;
17201;SDS011;8717;53.588;10.176;2022-09-09T13:10:32;2.75;;;1.80;;
17201;SDS011;8717;53.588;10.176;2022-09-09T13:13:04;1.88;;;1.13;;
17201;SDS011;8717;53.588;10.176;2022-09-09T13:15:40;2.15;;;1.48;;
17201;SDS011;8717;53.588;10.176;2022-09-09T13:18:16;3.05;;;1.52;;
17201;SDS011;8717;53.588;10.176;2022-09-09T13:20:48;3.55;;;1.90;;
17201;SDS011;8717;53.588;10.176;2022-09-09T13:23:18;2.80;;;1.65;;
17201;SDS011;8717;53.588;10.176;2022-09-09T13:25:53;2.47;;;1.83;;
17201;SDS011;8717;53.588;10.176;2022-09-09T13:28:22;6.23;;;2.33;;
17201;SDS011;8717;53.588;10.176;2022-09-09T13:30:57;4.60;;;1.80;;
17201;SDS011;8717;53.588;10.176;2022-09-09T13:33:31;3.50;;;1.73;;
17201;SDS011;8717;53.588;10.176;2022-09-09T13:36:00;3.73;;;1.97;;
17201;SDS011;8717;53.588;10.176;2022-09-09T13:38:32;4.17;;;1.90;;
17201;SDS011;8717;53.588;10.176;2022-09-09T13:41:02;4.53;;;1.83;;
17201;SDS011;8717;53.588;10.176;2022-09-09T13:43:34;3.47;;;2.00;;
17201;SDS011;8717;53.588;10.176;2022-09-09T13:46:04;3.03;;;1.77;;
17201;SDS011;8717;53.588;10.176;2022-09-09T13:48:31;4.13;;;1.87;;
17201;SDS011;8717;53.588;10.176;2022-09-09T13:50:59;3.60;;;2.00;;
17201;SDS011;8717;53.588;10.176;2022-09-09T13:53:28;5.53;;;2.00;;
17201;SDS011;8717;53.588;10.176;2022-09-09T13:55:56;3.47;;;1.87;;
17201;SDS011;8717;53.588;10.176;2022-09-09T13:58:24;5.13;;;2.20;;
17201;SDS011;8717;53.588;10.176;2022-09-09T14:00:51;2.97;;;1.60;;
17201;SDS011;8717;53.588;10.176;2022-09-09T14:03:19;4.03;;;1.87;;
17201;SDS011;8717;53.588;10.176;2022-09-09T14:05:46;3.50;;;1.50;;
17201;SDS011;8717;53.588;10.176;2022-09-09T14:08:15;2.53;;;1.43;;
17201;SDS011;8717;53.588;10.176;2022-09-09T14:10:47;4.00;;;1.53;;
17201;SDS011;8717;53.588;10.176;2022-09-09T14:13:15;4.73;;;1.83;;
17201;SDS011;8717;53.588;10.176;2022-09-09T14:15:42;2.83;;;1.70;;
17201;SDS011;8717;53.588;10.176;2022-09-09T14:18:09;2.83;;;2.17;;
17201;SDS011;8717;53.588;10.176;2022-09-09T14:20:38;3.30;;;1.93;;
17201;SDS011;8717;53.588;10.176;2022-09-09T14:23:05;4.00;;;1.90;;
17201;SDS011;8717;53.588;10.176;2022-09-09T14:25:31;3.80;;;1.70;;
17201;SDS011;8717;53.588;10.176;2022-09-09T14:27:58;4.63;;;1.90;;
17201;SDS011;8717;53.588;10.176;2022-09-09T14:30:26;3.40;;;1.80;;
17201;SDS011;8717;53.588;10.176;2022-09-09T14:32:53;2.97;;;1.77;;
17201;SDS011;8717;53.588;10.176;2022-09-09T14:35:20;5.07;;;2.03;;
17201;SDS011;8717;53.588;10.176;2022-09-09T14:37:47;6.90;;;2.17;;
17201;SDS011;8717;53.588;10.176;2022-09-09T14:40:13;4.13;;;2.00;;
17201;SDS011;8717;53.588;10.176;2022-09-09T14:42:41;4.63;;;1.67;;
17201;SDS011;8717;53.588;10.176;2022-09-09T14:45:08;5.30;;;2.10;;
17201;SDS011;8717;53.588;10.176;2022-09-09T14:47:36;4.23;;;1.90;;
17201;SDS011;8717;53.588;10.176;2022-09-09T14:50:03;4.57;;;1.73;;
17201;SDS011;8717;53.588;10.176;2022-09-09T14:52:31;6.80;;;3.10;;
17201;SDS011;8717;53.588;10.176;2022-09-09T14:54:58;2.83;;;1.87;;
17201;SDS011;8717;53.588;10.176;2022-09-09T14:57:27;3.97;;;2.20;;
17201;SDS011;8717;53.588;10.176;2022-09-09T14:59:54;4.37;;;2.17;;
17201;SDS011;8717;53.588;10.176;2022-09-09T15:02:21;4.47;;;2.50;;
17201;SDS011;8717;53.588;10.176;2022-09-09T15:04:49;4.60;;;2.40;;
17201;SDS011;8717;53.588;10.176;2022-09-09T15:07:17;5.00;;;2.53;;
17201;SDS011;8717;53.588;10.176;2022-09-09T15:09:45;3.70;;;2.70;;
17201;SDS011;8717;53.588;10.176;2022-09-09T15:12:13;4.33;;;2.23;;